Terminal Aerodrome Forecast
Issued by NWS

Home | Current Version | Previous Version | Text Only | Print | Product List | Glossary On
Versions: 1 2 3 4 5 6 7 8 9 10 11 12 13 14
000
FTUS43 KPAH 140500
TAFCGI
TAF
KCGI 140520Z 1406/1506 05003KT P6SM SKC
     FM141500 03005KT P6SM SKC
     FM150300 07002KT P6SM SKC=

USA.gov is the U.S. government's official web portal to all federal, state and local government web resources and services.